YBK weather

Baker Lake Airport
Baker Lake, Nunavut, Canada

Public forecast

Using degrees Celsius for public forecast. Weather courtesy of forecast.io.

METAR (pilot weather report)

Retrieved 2019/05/20 02:00 UTC (24 minutes ago):

CYBK 200200Z 21006KT 20SM BKN120 BKN210 M02/M05 A3035 RMK AC5CI2 SLP280

TAF (pilot weather forecast)

Forecast is more than 12 hours old.

Retrieved 2019/05/19 00:42 UTC (1 day ago):

TAF TAF CYBK 192338Z 2000/2012 VRB03KT P6SM FEW025 BKN200 BECMG 2007/2009 12008KT FM200900 12008KT P6SM FEW025 SCT070 OVC120 RMK NXT FCST BY 200600Z